createdAt,value
2018-11-11T00:02:08.071Z,46.10
2018-11-11T00:04:37.000Z,45.23
2018-11-11T00:07:05.686Z,44.77
2018-11-11T00:09:34.344Z,45.97
2018-11-11T00:14:33.166Z,47.40
2018-11-11T00:17:02.215Z,52.87
2018-11-11T00:19:30.584Z,53.87
2018-11-11T00:21:59.441Z,47.73
2018-11-11T00:24:27.847Z,50.27
2018-11-11T00:26:56.152Z,49.53
2018-11-11T00:29:24.500Z,55.93
2018-11-11T00:31:52.938Z,49.13
2018-11-11T00:34:24.701Z,47.57
2018-11-11T00:36:53.474Z,49.83
2018-11-11T00:39:22.303Z,49.13
2018-11-11T00:41:50.631Z,47.00
2018-11-11T00:44:18.933Z,44.30
2018-11-11T00:46:47.284Z,43.80
2018-11-11T00:49:15.615Z,41.57
2018-11-11T00:51:43.922Z,44.30
2018-11-11T00:54:12.465Z,39.70
2018-11-11T00:56:40.771Z,39.00
2018-11-11T00:59:09.034Z,38.53
2018-11-11T01:01:37.327Z,39.63
2018-11-11T01:04:06.173Z,39.70
2018-11-11T01:06:34.403Z,41.10
2018-11-11T01:09:03.136Z,40.50
2018-11-11T01:11:31.659Z,43.63
2018-11-11T01:14:00.646Z,36.80
2018-11-11T01:16:28.938Z,35.63
2018-11-11T01:19:05.087Z,40.17
2018-11-11T01:21:33.363Z,37.53
2018-11-11T01:24:01.643Z,38.90
2018-11-11T01:26:29.963Z,34.50
2018-11-11T01:28:58.307Z,33.33
2018-11-11T01:31:27.031Z,40.27
2018-11-11T01:33:55.259Z,41.17
2018-11-11T01:36:23.747Z,33.50
2018-11-11T01:38:52.287Z,35.30
2018-11-11T01:41:20.927Z,32.33
2018-11-11T01:43:49.177Z,35.07
2018-11-11T01:46:17.564Z,33.37
2018-11-11T01:48:45.883Z,34.07
2018-11-11T01:51:14.235Z,33.30
2018-11-11T01:53:42.590Z,38.00
2018-11-11T01:56:10.883Z,36.90
2018-11-11T01:58:39.620Z,33.27
2018-11-11T02:01:07.899Z,42.47
2018-11-11T02:03:36.724Z,35.37
2018-11-11T02:06:05.530Z,39.57
2018-11-11T02:08:34.822Z,36.13
2018-11-11T02:11:03.094Z,34.53
2018-11-11T02:13:31.655Z,39.30
2018-11-11T02:15:59.927Z,36.07
2018-11-11T02:18:28.527Z,39.33
2018-11-11T02:20:56.841Z,35.00
2018-11-11T02:23:25.123Z,39.30
2018-11-11T02:25:53.475Z,35.57
2018-11-11T02:28:21.744Z,39.13
2018-11-11T02:30:50.103Z,34.47
2018-11-11T02:33:18.686Z,40.10
2018-11-11T02:35:46.967Z,36.07
2018-11-11T02:38:15.871Z,37.77
2018-11-11T02:40:44.135Z,40.70
2018-11-11T02:43:12.424Z,32.97
2018-11-11T02:45:40.699Z,39.50
2018-11-11T02:48:21.376Z,29.27
2018-11-11T02:50:49.650Z,35.23
2018-11-11T02:53:17.867Z,36.23
2018-11-11T02:55:46.082Z,32.80
2018-11-11T02:58:14.367Z,37.10
2018-11-11T03:00:43.215Z,37.07
2018-11-11T03:03:12.093Z,38.03
2018-11-11T03:05:40.315Z,35.17
2018-11-11T03:08:08.537Z,36.13
2018-11-11T03:10:37.428Z,41.10
2018-11-11T03:13:06.379Z,32.03
2018-11-11T03:15:34.628Z,37.73
2018-11-11T03:18:03.492Z,34.87
2018-11-11T03:20:31.715Z,37.07
2018-11-11T03:22:59.997Z,35.63
2018-11-11T03:25:28.269Z,36.00
2018-11-11T03:27:56.503Z,33.77
2018-11-11T03:30:24.862Z,34.27
2018-11-11T03:32:54.386Z,33.97
2018-11-11T03:35:22.673Z,36.97
2018-11-11T03:37:51.487Z,35.93
2018-11-11T03:40:20.846Z,35.30
2018-11-11T03:42:50.090Z,36.30
2018-11-11T03:45:19.335Z,34.47
2018-11-11T03:47:48.567Z,38.63
2018-11-11T03:50:16.865Z,35.00
2018-11-11T03:52:45.930Z,37.13
2018-11-11T03:55:14.250Z,34.33
2018-11-11T03:57:42.506Z,37.60
2018-11-11T04:00:12.871Z,37.07
2018-11-11T04:02:41.161Z,39.47
2018-11-11T04:05:10.961Z,35.30
2018-11-11T04:07:39.592Z,37.10
2018-11-11T04:10:09.538Z,41.23
2018-11-11T04:12:38.295Z,36.30
2018-11-11T04:15:07.823Z,37.70
2018-11-11T04:17:37.078Z,39.30
2018-11-11T04:20:06.091Z,46.27
2018-11-11T04:22:34.367Z,41.90
2018-11-11T04:25:02.956Z,45.40
2018-11-11T04:27:31.199Z,40.53
2018-11-11T04:29:59.508Z,43.20
2018-11-11T04:32:27.775Z,49.53
2018-11-11T04:34:56.271Z,47.30
2018-11-11T04:37:25.094Z,44.47
2018-11-11T04:39:53.412Z,49.10
2018-11-11T04:42:21.700Z,45.90
2018-11-11T04:44:50.639Z,44.67
2018-11-11T04:47:18.976Z,52.43
2018-11-11T04:49:47.234Z,47.67
2018-11-11T04:52:15.473Z,46.20
2018-11-11T04:54:43.710Z,42.83
2018-11-11T04:57:12.012Z,43.43
2018-11-11T04:59:40.775Z,42.27
2018-11-11T05:02:09.048Z,44.10
2018-11-11T05:04:37.628Z,47.90
2018-11-11T05:07:06.663Z,46.70
2018-11-11T05:09:35.291Z,49.77
2018-11-11T05:12:04.079Z,46.97
2018-11-11T05:14:32.866Z,49.80
2018-11-11T05:17:01.636Z,41.47
2018-11-11T05:19:29.932Z,46.33
2018-11-11T05:21:58.277Z,42.97
2018-11-11T05:24:26.500Z,48.73
2018-11-11T05:26:54.771Z,49.93
2018-11-11T05:29:23.092Z,49.27
2018-11-11T05:31:51.985Z,44.67
2018-11-11T05:34:20.222Z,48.77
2018-11-11T05:36:49.251Z,45.97
2018-11-11T05:39:17.486Z,53.07
2018-11-11T05:41:45.706Z,51.90
2018-11-11T05:44:14.040Z,45.43
2018-11-11T05:46:42.271Z,47.97
2018-11-11T05:49:10.575Z,47.53
2018-11-11T05:51:38.852Z,48.27
2018-11-11T05:54:07.123Z,44.63
2018-11-11T05:56:35.399Z,49.83
2018-11-11T05:59:04.775Z,43.57
2018-11-11T06:01:33.647Z,42.93
2018-11-11T06:04:02.252Z,48.37
2018-11-11T06:06:30.567Z,50.57
2018-11-11T06:08:59.133Z,46.70
2018-11-11T06:11:27.896Z,42.17
2018-11-11T06:13:56.366Z,51.20
2018-11-11T06:16:24.883Z,49.20
2018-11-11T06:18:53.691Z,54.73
2018-11-11T06:21:21.963Z,44.67
2018-11-11T06:23:50.994Z,46.63
2018-11-11T06:26:19.271Z,43.83
2018-11-11T06:28:49.448Z,42.27
2018-11-11T06:31:17.675Z,44.67
2018-11-11T06:33:45.922Z,41.93
2018-11-11T06:36:14.162Z,42.83
2018-11-11T06:38:42.828Z,46.57
2018-11-11T06:41:11.086Z,46.03
2018-11-11T06:43:39.300Z,45.67
2018-11-11T06:46:07.574Z,45.10
2018-11-11T06:48:35.844Z,41.60
2018-11-11T06:51:04.182Z,42.83
2018-11-11T06:53:33.073Z,42.70
2018-11-11T06:56:01.292Z,43.23
2018-11-11T06:58:29.534Z,47.23
2018-11-11T07:00:58.194Z,51.70
2018-11-11T07:04:01.733Z,46.47
2018-11-11T07:06:30.366Z,45.20
2018-11-11T07:08:59.213Z,52.33
2018-11-11T07:11:28.018Z,54.17
2018-11-11T07:13:56.270Z,44.63
2018-11-11T07:16:25.031Z,47.53
2018-11-11T07:18:53.820Z,45.73
2018-11-11T07:21:22.499Z,44.30
2018-11-11T07:23:50.788Z,44.87
2018-11-11T07:26:19.020Z,45.00
2018-11-11T07:28:47.264Z,31.87
2018-11-11T07:31:15.485Z,31.03
2018-11-11T07:33:47.319Z,25.57
2018-11-11T07:36:15.578Z,26.57
2018-11-11T07:38:44.259Z,23.23
2018-11-11T07:41:12.539Z,22.73
2018-11-11T07:43:40.756Z,22.90
2018-11-11T07:46:09.221Z,22.50
2018-11-11T07:48:37.455Z,20.03
2018-11-11T07:51:05.631Z,20.27
2018-11-11T07:53:33.687Z,23.07
2018-11-11T07:56:01.764Z,21.50
2018-11-11T07:58:29.905Z,22.97
2018-11-11T08:00:58.457Z,21.37
2018-11-11T08:03:26.812Z,23.97
2018-11-11T08:05:54.828Z,25.10
2018-11-11T08:08:23.479Z,25.67
2018-11-11T08:10:57.243Z,27.97
2018-11-11T08:13:25.778Z,27.03
2018-11-11T08:15:54.515Z,29.10
2018-11-11T08:18:26.745Z,29.63
2018-11-11T08:20:55.385Z,26.30
2018-11-11T08:23:23.655Z,29.53
2018-11-11T08:25:51.935Z,27.40
2018-11-11T08:28:20.219Z,26.97
2018-11-11T08:30:48.483Z,29.83
2018-11-11T08:33:16.862Z,29.83
2018-11-11T08:35:45.157Z,28.07
2018-11-11T08:38:13.803Z,32.17
2018-11-11T08:40:42.882Z,33.83
2018-11-11T08:43:11.398Z,29.30
2018-11-11T08:45:39.671Z,30.70
2018-11-11T08:48:08.065Z,30.33
2018-11-11T08:50:36.637Z,38.07
2018-11-11T08:53:05.414Z,35.57
2018-11-11T08:55:34.086Z,39.67
2018-11-11T08:58:02.467Z,41.37
2018-11-11T09:00:31.224Z,43.80
2018-11-11T09:03:00.182Z,41.07
2018-11-11T09:05:28.734Z,39.33
2018-11-11T09:07:57.010Z,40.53
2018-11-11T09:10:25.811Z,39.33
2018-11-11T09:12:54.561Z,40.23
2018-11-11T09:15:23.194Z,37.23
2018-11-11T09:17:51.851Z,41.27
2018-11-11T09:20:20.607Z,34.97
2018-11-11T09:22:48.855Z,36.47
2018-11-11T09:25:17.250Z,34.33
2018-11-11T09:27:45.518Z,34.43
2018-11-11T09:30:14.967Z,35.40
2018-11-11T09:32:43.556Z,36.50
2018-11-11T09:35:11.895Z,36.63
2018-11-11T09:37:40.719Z,38.60
2018-11-11T09:40:10.223Z,36.67
2018-11-11T09:42:38.692Z,39.60
2018-11-11T09:45:09.455Z,39.03
2018-11-11T09:50:10.216Z,35.63
2018-11-11T09:52:38.665Z,38.03
2018-11-11T09:55:07.658Z,38.50
2018-11-11T09:57:36.607Z,32.50
2018-11-11T10:00:07.912Z,36.00
2018-11-11T10:02:36.133Z,32.17
2018-11-11T10:07:12.864Z,32.40
2018-11-11T10:11:51.283Z,30.43
2018-11-11T10:14:39.695Z,27.80
2018-11-11T10:17:27.627Z,24.60
2018-11-11T10:20:03.300Z,24.97
2018-11-11T10:22:42.185Z,28.93
2018-11-11T10:27:23.400Z,30.90
2018-11-11T10:29:54.588Z,26.27
2018-11-11T10:32:41.738Z,21.80
2018-11-11T10:37:16.512Z,23.87
2018-11-11T10:39:51.494Z,25.87
2018-11-11T10:42:25.124Z,25.20
2018-11-11T10:45:02.635Z,24.73
2018-11-11T10:47:38.326Z,22.90
2018-11-11T10:50:20.526Z,25.87
2018-11-11T10:52:49.125Z,21.73
2018-11-11T10:55:17.685Z,25.33
2018-11-11T10:57:46.022Z,25.63
2018-11-11T11:00:20.480Z,25.40
2018-11-11T11:02:55.771Z,30.00
2018-11-11T11:05:24.682Z,27.83
2018-11-11T11:07:53.252Z,29.60
2018-11-11T11:10:22.043Z,30.73
2018-11-11T11:12:51.483Z,27.47
2018-11-11T11:15:20.715Z,27.23
2018-11-11T11:17:50.286Z,29.53
2018-11-11T11:20:19.485Z,29.50
2018-11-11T11:22:48.311Z,25.43
2018-11-11T11:25:16.998Z,31.33
2018-11-11T11:27:45.355Z,27.30
2018-11-11T11:30:14.191Z,27.70
2018-11-11T11:32:42.527Z,25.93
2018-11-11T11:35:11.031Z,25.40
2018-11-11T11:37:40.002Z,26.93
2018-11-11T11:40:09.450Z,29.67
2018-11-11T11:42:38.140Z,29.33
2018-11-11T11:45:07.336Z,27.03
2018-11-11T11:47:35.713Z,26.80
2018-11-11T11:50:05.422Z,27.60
2018-11-11T11:52:33.799Z,27.60
2018-11-11T11:55:01.971Z,28.20
2018-11-11T11:57:30.262Z,27.30
2018-11-11T11:59:59.071Z,28.20
2018-11-11T12:02:27.326Z,26.77
2018-11-11T12:04:56.299Z,28.33
2018-11-11T12:07:25.395Z,28.47
2018-11-11T12:09:54.051Z,27.63
2018-11-11T12:12:22.881Z,28.07
2018-11-11T12:14:51.851Z,27.30
2018-11-11T12:17:20.738Z,26.27
2018-11-11T12:19:49.037Z,27.87
2018-11-11T12:22:17.558Z,30.93
2018-11-11T12:24:45.826Z,25.77
2018-11-11T12:27:14.069Z,30.10
2018-11-11T12:29:42.350Z,31.10
2018-11-11T12:32:10.672Z,25.80
2018-11-11T12:34:39.011Z,28.17
2018-11-11T12:37:08.593Z,26.80
2018-11-11T12:39:36.925Z,30.63
2018-11-11T12:42:05.321Z,26.40
2018-11-11T12:44:33.654Z,29.07
2018-11-11T12:47:02.215Z,27.97
2018-11-11T12:49:31.531Z,27.10
2018-11-11T12:52:00.266Z,27.17
2018-11-11T12:54:29.067Z,26.80
2018-11-11T12:56:59.201Z,25.87
2018-11-11T12:59:27.978Z,26.97
2018-11-11T13:01:56.831Z,24.77
2018-11-11T13:04:26.077Z,26.03
2018-11-11T13:06:54.877Z,28.60
2018-11-11T13:09:23.961Z,27.57
2018-11-11T13:11:52.804Z,25.40
2018-11-11T13:14:21.410Z,29.00
2018-11-11T13:16:49.729Z,25.37
2018-11-11T13:19:18.457Z,28.30
2018-11-11T13:21:46.687Z,28.20
2018-11-11T13:24:15.373Z,29.50
2018-11-11T13:26:43.627Z,26.80
2018-11-11T13:29:11.868Z,26.87
2018-11-11T13:31:40.134Z,29.20
2018-11-11T13:34:08.355Z,27.80
2018-11-11T13:36:37.519Z,31.93
2018-11-11T13:39:08.653Z,28.47
2018-11-11T13:41:36.885Z,27.83
2018-11-11T13:44:05.680Z,29.37
2018-11-11T13:46:34.281Z,26.80
2018-11-11T13:49:03.067Z,28.43
2018-11-11T13:51:31.367Z,27.70
2018-11-11T13:54:00.036Z,28.17
2018-11-11T13:56:28.899Z,26.40
2018-11-11T13:58:57.481Z,25.10
2018-11-11T14:01:25.751Z,23.43
2018-11-11T14:03:54.708Z,23.23
2018-11-11T14:06:24.553Z,23.77
2018-11-11T14:08:52.804Z,26.67
2018-11-11T14:11:21.070Z,26.10
2018-11-11T14:13:49.315Z,24.60
2018-11-11T14:16:17.572Z,23.87
2018-11-11T14:18:46.526Z,21.73
2018-11-11T14:21:14.522Z,25.27
2018-11-11T14:23:42.793Z,23.43
2018-11-11T14:26:11.345Z,24.27
2018-11-11T14:28:39.654Z,24.63
2018-11-11T14:31:08.011Z,27.03
2018-11-11T14:33:36.267Z,25.47
2018-11-11T14:36:04.566Z,23.30
2018-11-11T14:38:33.270Z,23.83
2018-11-11T14:41:01.531Z,22.90
2018-11-11T14:43:29.782Z,25.03
2018-11-11T14:45:58.586Z,23.57
2018-11-11T14:48:27.203Z,25.20
2018-11-11T14:50:55.991Z,24.57
2018-11-11T14:53:24.245Z,25.30
2018-11-11T14:55:52.532Z,25.63
2018-11-11T14:58:20.884Z,24.63
2018-11-11T15:00:49.456Z,24.87
2018-11-11T15:03:19.534Z,23.03
2018-11-11T15:05:48.903Z,26.77
2018-11-11T15:08:17.185Z,26.53
2018-11-11T15:10:47.497Z,26.73
2018-11-11T15:13:16.742Z,28.90
2018-11-11T15:15:44.962Z,28.13
2018-11-11T15:18:13.650Z,25.83
2018-11-11T15:20:41.970Z,26.93
2018-11-11T15:23:10.766Z,26.33
2018-11-11T15:25:39.091Z,25.20
2018-11-11T15:28:07.575Z,26.47
2018-11-11T15:30:37.048Z,26.30
2018-11-11T15:33:06.331Z,26.90
2018-11-11T15:35:34.600Z,26.63
2018-11-11T15:38:03.270Z,28.43
2018-11-11T15:40:33.051Z,27.20
2018-11-11T15:43:02.195Z,30.43
2018-11-11T15:45:31.827Z,28.57
2018-11-11T15:48:00.427Z,29.50
2018-11-11T15:50:30.147Z,26.53
2018-11-11T15:53:00.294Z,28.27
2018-11-11T15:55:29.635Z,27.23
2018-11-11T15:57:57.887Z,29.77
2018-11-11T16:00:28.600Z,26.40
2018-11-11T16:02:57.389Z,25.50
2018-11-11T16:05:26.048Z,28.47
2018-11-11T16:07:54.810Z,30.07
2018-11-11T16:10:24.464Z,28.03
2018-11-11T16:12:52.883Z,26.97
2018-11-11T16:15:23.346Z,33.87
2018-11-11T16:17:55.565Z,30.23
2018-11-11T16:20:25.098Z,27.97
2018-11-11T16:22:55.070Z,28.20
2018-11-11T16:25:23.377Z,28.20
2018-11-11T16:27:51.612Z,30.23
2018-11-11T16:30:21.896Z,32.00
2018-11-11T16:32:50.698Z,31.67
2018-11-11T16:35:20.203Z,29.53
2018-11-11T16:37:49.328Z,29.53
2018-11-11T16:40:21.775Z,28.77
2018-11-11T16:42:50.796Z,35.63
2018-11-11T16:45:20.374Z,27.73
2018-11-11T16:47:48.716Z,33.27
2018-11-11T16:50:19.367Z,32.23
2018-11-11T16:52:48.825Z,29.90
2018-11-11T16:55:18.291Z,37.23
2018-11-11T16:57:46.523Z,30.70
2018-11-11T17:00:20.554Z,32.73
2018-11-11T17:02:50.084Z,36.23
2018-11-11T17:05:20.281Z,31.50
2018-11-11T17:07:48.715Z,29.17
2018-11-11T17:10:20.643Z,31.23
2018-11-11T17:12:50.056Z,29.00
2018-11-11T17:15:21.268Z,31.63
2018-11-11T17:17:49.987Z,33.83
2018-11-11T17:20:19.390Z,30.47
2018-11-11T17:22:48.600Z,34.47
2018-11-11T17:25:17.592Z,33.57
2018-11-11T17:27:46.207Z,33.80
2018-11-11T17:30:16.910Z,33.33
2018-11-11T17:32:46.300Z,41.53
2018-11-11T17:35:14.627Z,40.90
2018-11-11T17:37:43.560Z,33.37
2018-11-11T17:40:13.479Z,31.10
2018-11-11T17:42:42.944Z,41.70
2018-11-11T17:45:11.580Z,39.47
2018-11-11T17:47:40.455Z,32.13
2018-11-11T17:50:11.132Z,32.23
2018-11-11T17:52:40.435Z,36.13
2018-11-11T17:55:09.296Z,29.87
2018-11-11T17:57:37.559Z,37.10
2018-11-11T18:00:07.168Z,37.40
2018-11-11T18:02:35.447Z,31.60
2018-11-11T18:05:04.174Z,33.57
2018-11-11T18:07:32.813Z,32.83
2018-11-11T18:10:01.095Z,38.13
2018-11-11T18:12:29.369Z,33.17
2018-11-11T18:14:57.649Z,31.73
2018-11-11T18:17:26.529Z,32.53
2018-11-11T18:19:54.806Z,30.33
2018-11-11T18:22:23.460Z,35.83
2018-11-11T18:24:52.223Z,36.33
2018-11-11T18:27:20.520Z,32.50
2018-11-11T18:29:48.778Z,33.50
2018-11-11T18:32:16.992Z,31.63
2018-11-11T18:34:45.255Z,35.90
2018-11-11T18:39:48.122Z,29.77
2018-11-11T18:42:16.351Z,31.47
2018-11-11T18:44:44.625Z,30.73
2018-11-11T18:47:12.896Z,29.43
2018-11-11T18:49:41.144Z,32.37
2018-11-11T18:52:09.437Z,39.43
2018-11-11T18:54:38.028Z,40.37
2018-11-11T18:57:06.838Z,30.67
2018-11-11T18:59:35.679Z,31.23
2018-11-11T19:02:03.962Z,40.40
2018-11-11T19:04:32.512Z,31.03
2018-11-11T19:07:00.767Z,30.83
2018-11-11T19:09:29.068Z,31.90
2018-11-11T19:11:57.275Z,28.07
2018-11-11T19:14:25.511Z,34.43
2018-11-11T19:16:54.056Z,35.10
2018-11-11T19:19:22.557Z,33.57
2018-11-11T19:21:50.789Z,29.37
2018-11-11T19:24:19.545Z,36.87
2018-11-11T19:26:47.759Z,33.60
2018-11-11T19:29:16.012Z,32.97
2018-11-11T19:31:44.316Z,29.63
2018-11-11T19:34:12.566Z,36.67
2018-11-11T19:36:41.147Z,33.30
2018-11-11T19:39:11.195Z,30.73
2018-11-11T19:41:40.145Z,40.30
2018-11-11T19:44:08.718Z,35.87
2018-11-11T19:46:37.131Z,34.00
2018-11-11T19:49:05.678Z,33.07
2018-11-11T19:51:34.013Z,36.83
2018-11-11T19:54:02.695Z,34.53
2018-11-11T19:56:31.483Z,33.07
2018-11-11T19:59:00.163Z,31.40
2018-11-11T20:01:28.437Z,31.80
2018-11-11T20:03:57.091Z,33.60
2018-11-11T20:06:25.299Z,35.80
2018-11-11T20:08:53.583Z,32.93
2018-11-11T20:11:22.402Z,33.30
2018-11-11T20:13:50.546Z,32.13
2018-11-11T20:16:49.157Z,33.47
2018-11-11T20:19:17.784Z,32.87
2018-11-11T20:21:46.387Z,34.67
2018-11-11T20:24:14.683Z,33.47
2018-11-11T20:26:42.904Z,31.43
2018-11-11T20:29:11.168Z,34.90
2018-11-11T20:31:39.506Z,33.90
2018-11-11T20:34:07.742Z,29.90
2018-11-11T20:36:36.456Z,35.50
2018-11-11T20:39:08.179Z,34.33
2018-11-11T20:41:36.389Z,31.83
2018-11-11T20:44:05.450Z,31.87
2018-11-11T20:46:33.755Z,31.90
2018-11-11T20:49:02.034Z,29.30
2018-11-11T20:51:30.352Z,34.27
2018-11-11T20:53:59.095Z,33.20
2018-11-11T20:56:27.352Z,31.80
2018-11-11T20:58:56.148Z,31.10
2018-11-11T21:01:24.383Z,35.63
2018-11-11T21:03:52.959Z,32.70
2018-11-11T21:06:21.725Z,33.27
2018-11-11T21:08:49.950Z,37.83
2018-11-11T21:11:18.215Z,32.00
2018-11-11T21:13:46.843Z,31.87
2018-11-11T21:16:15.063Z,34.27
2018-11-11T21:18:43.546Z,32.87
2018-11-11T21:21:11.759Z,35.10
2018-11-11T21:23:40.016Z,37.13
2018-11-11T21:26:08.268Z,34.40
2018-11-11T21:28:36.501Z,32.17
2018-11-11T21:31:04.843Z,35.20
2018-11-11T21:33:33.054Z,31.73
2018-11-11T21:36:01.304Z,31.83
2018-11-11T21:38:29.950Z,32.27
2018-11-11T21:40:58.781Z,34.17
2018-11-11T21:43:27.075Z,32.60
2018-11-11T21:45:55.460Z,35.17
2018-11-11T21:48:23.935Z,35.83
2018-11-11T21:50:52.211Z,35.03
2018-11-11T21:53:27.090Z,34.20
2018-11-11T21:55:55.456Z,31.43
2018-11-11T21:58:23.796Z,32.63
2018-11-11T22:00:52.374Z,37.40
2018-11-11T22:03:21.169Z,30.40
2018-11-11T22:05:50.059Z,33.67
2018-11-11T22:08:18.799Z,32.53
2018-11-11T22:10:47.120Z,29.63
2018-11-11T22:13:15.394Z,31.17
2018-11-11T22:15:43.771Z,31.80
2018-11-11T22:18:12.363Z,33.83
2018-11-11T22:20:40.640Z,31.50
2018-11-11T22:23:08.984Z,33.07
2018-11-11T22:25:37.468Z,36.00
2018-11-11T22:28:06.087Z,32.83
2018-11-11T22:30:34.353Z,30.33
2018-11-11T22:33:02.652Z,33.70
2018-11-11T22:35:30.899Z,32.10
2018-11-11T22:37:59.601Z,27.27
2018-11-11T22:40:28.231Z,35.67
2018-11-11T22:42:57.036Z,31.60
2018-11-11T22:45:25.331Z,29.63
2018-11-11T22:47:53.611Z,31.87
2018-11-11T22:50:21.910Z,30.17
2018-11-11T22:52:50.160Z,28.00
2018-11-11T22:55:18.460Z,31.50
2018-11-11T22:57:46.788Z,31.17
2018-11-11T23:00:21.560Z,28.37
2018-11-11T23:02:51.097Z,28.57
2018-11-11T23:05:20.824Z,29.40
2018-11-11T23:07:49.131Z,29.93
2018-11-11T23:10:17.617Z,30.27
2018-11-11T23:12:46.062Z,30.90
2018-11-11T23:15:15.624Z,28.73
2018-11-11T23:17:44.155Z,30.13
2018-11-11T23:20:13.936Z,27.93
2018-11-11T23:22:42.423Z,30.27
2018-11-11T23:25:12.198Z,29.53
2018-11-11T23:27:40.483Z,29.10
2018-11-11T23:30:17.121Z,28.20
2018-11-11T23:32:45.789Z,26.63
2018-11-11T23:35:14.015Z,25.80
2018-11-11T23:37:43.266Z,28.13
2018-11-11T23:40:12.915Z,26.43
2018-11-11T23:42:42.014Z,27.90
2018-11-11T23:45:10.347Z,26.40
2018-11-11T23:47:39.007Z,27.23
2018-11-11T23:50:12.025Z,26.97
2018-11-11T23:52:41.088Z,26.40
2018-11-11T23:55:11.711Z,33.27
2018-11-11T23:57:39.942Z,30.77
